Station History

Weather Underground - logo

Station Historical Data
Daily Summary for February 24, 2018 Units:  Both    English   Metric
« Previous Day
Next Day »
Daily Weekly Monthly Yearly Custom
  High: Low: Average:
Temperature: 58.1 °F /  14.5 °C 29.4 °F /  -1.4 °C 44.2 °F /  6.8 °C
Dew Point: 34.5 °F /  1.4 °C 25.8 °F /  -3.4 °C 29 °F /  -1.7 °C
Humidity: 89 % 30 % 60 %
Wind Speed: 8.1 mph /  13 km/h - 1.2 mph /  1.9 km/h
Wind Gust: 8.1 mph /  13 km/h - -
Wind:- - WSW
Pressure: 30.47 in /  1031.7 hPa 30.26 in /  1024.6 hPa -
Precipitation: 0.00 in /  0 mm    
Historical Graphs
 
 
Tabular Data for February 24, 2018
Time Temperature Dew Point Pressure Wind Wind Speed Wind Gust Humidity Rainfall Rate (Hourly)
00:00 33.6 °F /  0.9 °C 29.3 °F /  -1.5 °C 30.42 in /  1030 hPa Calm     84 % 0.00 in /  0 mm
00:05 33.7 °F /  0.9 °C 29.4 °F /  -1.4 °C 30.42 in /  1030 hPa Calm     84 % 0.00 in /  0 mm
00:10 33.9 °F /  1.1 °C 29.3 °F /  -1.5 °C 30.42 in /  1030 hPa Calm     83 % 0.00 in /  0 mm
00:15 33.9 °F /  1.1 °C 29.3 °F /  -1.5 °C 30.43 in /  1030.4 hPa Calm     83 % 0.00 in /  0 mm
00:20 33.4 °F /  0.8 °C 29.1 °F /  -1.6 °C 30.43 in /  1030.4 hPa Calm     84 % 0.00 in /  0 mm
00:25 33.1 °F /  0.6 °C 29.4 °F /  -1.4 °C 30.43 in /  1030.4 hPa Calm     86 % 0.00 in /  0 mm
00:30 33.1 °F /  0.6 °C 29.4 °F /  -1.4 °C 30.43 in /  1030.4 hPa Calm     86 % 0.00 in /  0 mm
00:35 33.1 °F /  0.6 °C 29.4 °F /  -1.4 °C 30.44 in /  1030.7 hPa Calm     86 % 0.00 in /  0 mm
00:40 33.1 °F /  0.6 °C 29.4 °F /  -1.4 °C 30.43 in /  1030.4 hPa Calm     86 % 0.00 in /  0 mm
00:45 33.1 °F /  0.6 °C 29.1 °F /  -1.6 °C 30.44 in /  1030.7 hPa Calm     85 % 0.00 in /  0 mm
00:51 33.0 °F /  0.6 °C 29.0 °F /  -1.7 °C 30.44 in /  1030.7 hPa Calm     85 % 0.00 in /  0 mm
00:56 32.9 °F /  0.5 °C 28.9 °F /  -1.7 °C 30.43 in /  1030.4 hPa Calm     85 % 0.00 in /  0 mm
01:01 32.8 °F /  0.4 °C 28.8 °F /  -1.8 °C 30.43 in /  1030.4 hPa Calm     85 % 0.00 in /  0 mm
01:06 32.7 °F /  0.4 °C 28.7 °F /  -1.8 °C 30.43 in /  1030.4 hPa Calm     85 % 0.00 in /  0 mm
01:11 32.5 °F /  0.3 °C 28.5 °F /  -1.9 °C 30.43 in /  1030.4 hPa Calm     85 % 0.00 in /  0 mm
01:16 32.5 °F /  0.3 °C 28.5 °F /  -1.9 °C 30.43 in /  1030.4 hPa Calm     85 % 0.00 in /  0 mm
01:21 32.4 °F /  0.2 °C 28.4 °F /  -2 °C 30.43 in /  1030.4 hPa Calm     85 % 0.00 in /  0 mm
01:26 32.3 °F /  0.2 °C 28.3 °F /  -2.1 °C 30.43 in /  1030.4 hPa Calm     85 % 0.00 in /  0 mm
01:31 32.3 °F /  0.2 °C 28.6 °F /  -1.9 °C 30.43 in /  1030.4 hPa Calm     86 % 0.00 in /  0 mm
01:36 32.3 °F /  0.2 °C 28.6 °F /  -1.9 °C 30.43 in /  1030.4 hPa Calm     86 % 0.00 in /  0 mm
01:41 32.2 °F /  0.1 °C 28.5 °F /  -1.9 °C 30.43 in /  1030.4 hPa Calm     86 % 0.00 in /  0 mm
01:46 32.2 °F /  0.1 °C 28.8 °F /  -1.8 °C 30.43 in /  1030.4 hPa Calm     87 % 0.00 in /  0 mm
01:51 32.1 °F /  0.1 °C 28.7 °F /  -1.8 °C 30.43 in /  1030.4 hPa Calm     87 % 0.00 in /  0 mm
01:56 32.0 °F /  0 °C 28.6 °F /  -1.9 °C 30.43 in /  1030.4 hPa Calm     87 % 0.00 in /  0 mm
02:01 32.0 °F /  0 °C 28.8 °F /  -1.8 °C 30.43 in /  1030.4 hPa Calm     88 % 0.00 in /  0 mm
02:06 32.2 °F /  0.1 °C 28.8 °F /  -1.8 °C 30.43 in /  1030.4 hPa Calm     87 % 0.00 in /  0 mm
02:11 32.1 °F /  0.1 °C 28.7 °F /  -1.8 °C 30.43 in /  1030.4 hPa Calm     87 % 0.00 in /  0 mm
02:16 32.1 °F /  0.1 °C 28.9 °F /  -1.7 °C 30.43 in /  1030.4 hPa Calm     88 % 0.00 in /  0 mm
02:21 32.0 °F /  0 °C 28.6 °F /  -1.9 °C 30.43 in /  1030.4 hPa Calm     87 % 0.00 in /  0 mm
02:26 31.8 °F /  -0.1 °C 28.4 °F /  -2 °C 30.43 in /  1030.4 hPa Calm     87 % 0.00 in /  0 mm
02:31 31.7 °F /  -0.2 °C 28.6 °F /  -1.9 °C 30.43 in /  1030.4 hPa Calm     88 % 0.00 in /  0 mm
02:36 31.7 °F /  -0.2 °C 28.6 °F /  -1.9 °C 30.43 in /  1030.4 hPa Calm     88 % 0.00 in /  0 mm
02:41 31.7 °F /  -0.2 °C 28.3 °F /  -2.1 °C 30.43 in /  1030.4 hPa Calm     87 % 0.00 in /  0 mm
02:46 31.7 °F /  -0.2 °C 28.3 °F /  -2.1 °C 30.43 in /  1030.4 hPa Calm     87 % 0.00 in /  0 mm
02:51 31.5 °F /  -0.3 °C 27.8 °F /  -2.3 °C 30.43 in /  1030.4 hPa Calm     86 % 0.00 in /  0 mm
02:56 31.2 °F /  -0.4 °C 27.5 °F /  -2.5 °C 30.43 in /  1030.4 hPa Calm     86 % 0.00 in /  0 mm
03:01 31.2 °F /  -0.4 °C 27.8 °F /  -2.3 °C 30.43 in /  1030.4 hPa Calm     87 % 0.00 in /  0 mm
03:06 31.2 °F /  -0.4 °C 27.8 °F /  -2.3 °C 30.43 in /  1030.4 hPa Calm     87 % 0.00 in /  0 mm
03:11 31.3 °F /  -0.4 °C 27.9 °F /  -2.3 °C 30.43 in /  1030.4 hPa Calm     87 % 0.00 in /  0 mm
03:16 31.3 °F /  -0.4 °C 27.9 °F /  -2.3 °C 30.43 in /  1030.4 hPa Calm     87 % 0.00 in /  0 mm
03:21 31.4 °F /  -0.3 °C 28.0 °F /  -2.2 °C 30.43 in /  1030.4 hPa Calm     87 % 0.00 in /  0 mm
03:26 31.2 °F /  -0.4 °C 27.8 °F /  -2.3 °C 30.43 in /  1030.4 hPa Calm     87 % 0.00 in /  0 mm
03:31 31.1 °F /  -0.5 °C 27.7 °F /  -2.4 °C 30.43 in /  1030.4 hPa Calm     87 % 0.00 in /  0 mm
03:36 30.8 °F /  -0.7 °C 27.4 °F /  -2.6 °C 30.43 in /  1030.4 hPa Calm     87 % 0.00 in /  0 mm
03:41 30.8 °F /  -0.7 °C 27.7 °F /  -2.4 °C 30.43 in /  1030.4 hPa Calm     88 % 0.00 in /  0 mm
03:46 31.0 °F /  -0.6 °C 27.9 °F /  -2.3 °C 30.43 in /  1030.4 hPa Calm     88 % 0.00 in /  0 mm
03:51 31.3 °F /  -0.4 °C 28.2 °F /  -2.1 °C 30.43 in /  1030.4 hPa Calm     88 % 0.00 in /  0 mm
03:56 31.5 °F /  -0.3 °C 28.1 °F /  -2.2 °C 30.43 in /  1030.4 hPa Calm     87 % 0.00 in /  0 mm
04:01 31.7 °F /  -0.2 °C 28.0 °F /  -2.2 °C 30.43 in /  1030.4 hPa NNW 1.2 mph /  1.9 km/h 1.2 mph /  1.9 km/h 86 % 0.00 in /  0 mm
04:06 31.7 °F /  -0.2 °C 28.0 °F /  -2.2 °C 30.43 in /  1030.4 hPa NNW 1.0 mph /  1.6 km/h   86 % 0.00 in /  0 mm
04:11 31.7 °F /  -0.2 °C 28.0 °F /  -2.2 °C 30.44 in /  1030.7 hPa Calm     86 % 0.00 in /  0 mm
04:16 31.6 °F /  -0.2 °C 27.9 °F /  -2.3 °C 30.44 in /  1030.7 hPa Calm     86 % 0.00 in /  0 mm
04:21 31.2 °F /  -0.4 °C 27.5 °F /  -2.5 °C 30.44 in /  1030.7 hPa Calm     86 % 0.00 in /  0 mm
04:27 30.8 °F /  -0.7 °C 27.1 °F /  -2.7 °C 30.44 in /  1030.7 hPa Calm     86 % 0.00 in /  0 mm
04:32 30.6 °F /  -0.8 °C 27.5 °F /  -2.5 °C 30.44 in /  1030.7 hPa Calm     88 % 0.00 in /  0 mm
04:37 30.8 °F /  -0.7 °C 27.7 °F /  -2.4 °C 30.44 in /  1030.7 hPa Calm     88 % 0.00 in /  0 mm
04:42 31.0 °F /  -0.6 °C 27.9 °F /  -2.3 °C 30.44 in /  1030.7 hPa Calm     88 % 0.00 in /  0 mm
04:47 31.0 °F /  -0.6 °C 27.6 °F /  -2.4 °C 30.44 in /  1030.7 hPa Calm     87 % 0.00 in /  0 mm
04:52 31.0 °F /  -0.6 °C 27.6 °F /  -2.4 °C 30.44 in /  1030.7 hPa Calm     87 % 0.00 in /  0 mm
04:57 30.8 °F /  -0.7 °C 27.4 °F /  -2.6 °C 30.44 in /  1030.7 hPa Calm     87 % 0.00 in /  0 mm
05:02 30.6 °F /  -0.8 °C 26.9 °F /  -2.8 °C 30.45 in /  1031 hPa Calm     86 % 0.00 in /  0 mm
05:07 30.3 °F /  -0.9 °C 26.9 °F /  -2.8 °C 30.45 in /  1031 hPa Calm     87 % 0.00 in /  0 mm
05:12 30.1 °F /  -1.1 °C 26.7 °F /  -2.9 °C 30.45 in /  1031 hPa Calm     87 % 0.00 in /  0 mm
05:17 30.0 °F /  -1.1 °C 26.9 °F /  -2.8 °C 30.45 in /  1031 hPa Calm     88 % 0.00 in /  0 mm
05:22 30.0 °F /  -1.1 °C 26.9 °F /  -2.8 °C 30.45 in /  1031 hPa Calm     88 % 0.00 in /  0 mm
05:27 30.0 °F /  -1.1 °C 27.2 °F /  -2.7 °C 30.45 in /  1031 hPa Calm     89 % 0.00 in /  0 mm
05:32 30.1 °F /  -1.1 °C 27.3 °F /  -2.6 °C 30.45 in /  1031 hPa Calm     89 % 0.00 in /  0 mm
05:37 30.2 °F /  -1 °C 27.3 °F /  -2.6 °C 30.45 in /  1031 hPa Calm     89 % 0.00 in /  0 mm
05:42 30.1 °F /  -1.1 °C 27.3 °F /  -2.6 °C 30.45 in /  1031 hPa Calm     89 % 0.00 in /  0 mm
05:47 30.0 °F /  -1.1 °C 27.2 °F /  -2.7 °C 30.45 in /  1031 hPa Calm     89 % 0.00 in /  0 mm
05:52 29.8 °F /  -1.2 °C 27.0 °F /  -2.8 °C 30.45 in /  1031 hPa Calm     89 % 0.00 in /  0 mm
05:57 29.8 °F /  -1.2 °C 27.0 °F /  -2.8 °C 30.45 in /  1031 hPa Calm     89 % 0.00 in /  0 mm
06:02 29.6 °F /  -1.3 °C 26.8 °F /  -2.9 °C 30.46 in /  1031.4 hPa Calm     89 % 0.00 in /  0 mm
06:07 29.5 °F /  -1.4 °C 26.7 °F /  -2.9 °C 30.45 in /  1031 hPa Calm     89 % 0.00 in /  0 mm
06:12 29.4 °F /  -1.4 °C 26.6 °F /  -3 °C 30.45 in /  1031 hPa Calm     89 % 0.00 in /  0 mm
06:17 29.4 °F /  -1.4 °C 26.6 °F /  -3 °C 30.45 in /  1031 hPa Calm     89 % 0.00 in /  0 mm
06:22 29.5 °F /  -1.4 °C 26.7 °F /  -2.9 °C 30.45 in /  1031 hPa Calm     89 % 0.00 in /  0 mm
06:27 29.8 °F /  -1.2 °C 27.0 °F /  -2.8 °C 30.45 in /  1031 hPa Calm     89 % 0.00 in /  0 mm
06:32 29.9 °F /  -1.2 °C 26.8 °F /  -2.9 °C 30.45 in /  1031 hPa Calm     88 % 0.00 in /  0 mm
06:37 29.8 °F /  -1.2 °C 26.7 °F /  -2.9 °C 30.45 in /  1031 hPa Calm     88 % 0.00 in /  0 mm
06:42 29.6 °F /  -1.3 °C 26.2 °F /  -3.2 °C 30.45 in /  1031 hPa Calm     87 % 0.00 in /  0 mm
06:47 29.4 °F /  -1.4 °C 26.3 °F /  -3.2 °C 30.45 in /  1031 hPa Calm     88 % 0.00 in /  0 mm
06:52 29.7 °F /  -1.3 °C 26.6 °F /  -3 °C 30.45 in /  1031 hPa Calm     88 % 0.00 in /  0 mm
06:57 30.1 °F /  -1.1 °C 27.0 °F /  -2.8 °C 30.45 in /  1031 hPa Calm     88 % 0.00 in /  0 mm
07:02 30.4 °F /  -0.9 °C 27.3 °F /  -2.6 °C 30.45 in /  1031 hPa Calm     88 % 0.00 in /  0 mm
07:07 30.6 °F /  -0.8 °C 27.2 °F /  -2.7 °C 30.46 in /  1031.4 hPa Calm     87 % 0.00 in /  0 mm
07:12 31.0 °F /  -0.6 °C 27.6 °F /  -2.4 °C 30.46 in /  1031.4 hPa Calm     87 % 0.00 in /  0 mm
07:17 31.5 °F /  -0.3 °C 27.8 °F /  -2.3 °C 30.46 in /  1031.4 hPa Calm     86 % 0.00 in /  0 mm
07:23 32.1 °F /  0.1 °C 28.4 °F /  -2 °C 30.46 in /  1031.4 hPa Calm     86 % 0.00 in /  0 mm
07:28 32.4 °F /  0.2 °C 28.4 °F /  -2 °C 30.46 in /  1031.4 hPa Calm     85 % 0.00 in /  0 mm
07:33 32.8 °F /  0.4 °C 28.8 °F /  -1.8 °C 30.47 in /  1031.7 hPa Calm     85 % 0.00 in /  0 mm
07:38 33.7 °F /  0.9 °C 29.7 °F /  -1.3 °C 30.46 in /  1031.4 hPa Calm     85 % 0.00 in /  0 mm
07:43 35.7 °F /  2.1 °C 31.0 °F /  -0.6 °C 30.47 in /  1031.7 hPa Calm     83 % 0.00 in /  0 mm
07:48 37.6 °F /  3.1 °C 32.0 °F /  0 °C 30.47 in /  1031.7 hPa Calm     80 % 0.00 in /  0 mm
07:53 38.8 °F /  3.8 °C 32.2 °F /  0.1 °C 30.46 in /  1031.4 hPa Calm     77 % 0.00 in /  0 mm
07:58 39.7 °F /  4.3 °C 32.8 °F /  0.4 °C 30.46 in /  1031.4 hPa Calm     76 % 0.00 in /  0 mm
08:03 40.7 °F /  4.8 °C 33.1 °F /  0.6 °C 30.46 in /  1031.4 hPa SE 1.2 mph /  1.9 km/h   74 % 0.00 in /  0 mm
08:08 41.7 °F /  5.4 °C 34.4 °F /  1.3 °C 30.46 in /  1031.4 hPa Calm     75 % 0.00 in /  0 mm
08:13 42.5 °F /  5.8 °C 34.1 °F /  1.2 °C 30.46 in /  1031.4 hPa Calm     72 % 0.00 in /  0 mm
08:18 43.2 °F /  6.2 °C 34.1 °F /  1.2 °C 30.46 in /  1031.4 hPa Calm     70 % 0.00 in /  0 mm
08:23 44.0 °F /  6.7 °C 33.7 °F /  0.9 °C 30.46 in /  1031.4 hPa Calm     67 % 0.00 in /  0 mm
08:28 44.4 °F /  6.9 °C 34.1 °F /  1.2 °C 30.46 in /  1031.4 hPa Calm     67 % 0.00 in /  0 mm
08:33 45.2 °F /  7.3 °C 34.5 °F /  1.4 °C 30.47 in /  1031.7 hPa Calm     66 % 0.00 in /  0 mm
08:38 45.7 °F /  7.6 °C 33.0 °F /  0.6 °C 30.46 in /  1031.4 hPa SSE 2.3 mph /  3.7 km/h 2.3 mph /  3.7 km/h 61 % 0.00 in /  0 mm
08:43 46.3 °F /  7.9 °C 32.7 °F /  0.4 °C 30.47 in /  1031.7 hPa ESE 1.2 mph /  1.9 km/h 1.2 mph /  1.9 km/h 59 % 0.00 in /  0 mm
08:48 46.2 °F /  7.9 °C 32.2 °F /  0.1 °C 30.47 in /  1031.7 hPa South 1.0 mph /  1.6 km/h 1.0 mph /  1.6 km/h 58 % 0.00 in /  0 mm
08:53 46.7 °F /  8.2 °C 32.7 °F /  0.4 °C 30.47 in /  1031.7 hPa SW 1.2 mph /  1.9 km/h 1.2 mph /  1.9 km/h 58 % 0.00 in /  0 mm
08:58 46.7 °F /  8.2 °C 31.4 °F /  -0.3 °C 30.47 in /  1031.7 hPa North 1.2 mph /  1.9 km/h 1.2 mph /  1.9 km/h 55 % 0.00 in /  0 mm
09:03 46.3 °F /  7.9 °C 32.3 °F /  0.2 °C 30.47 in /  1031.7 hPa NW 2.3 mph /  3.7 km/h 2.3 mph /  3.7 km/h 58 % 0.00 in /  0 mm
09:08 46.1 °F /  7.8 °C 32.1 °F /  0.1 °C 30.46 in /  1031.4 hPa NNW 1.2 mph /  1.9 km/h 1.2 mph /  1.9 km/h 58 % 0.00 in /  0 mm
09:13 46.2 °F /  7.9 °C 31.8 °F /  -0.1 °C 30.46 in /  1031.4 hPa NW 2.3 mph /  3.7 km/h 2.3 mph /  3.7 km/h 57 % 0.00 in /  0 mm
09:18 45.8 °F /  7.7 °C 31.0 °F /  -0.6 °C 30.46 in /  1031.4 hPa NW 1.0 mph /  1.6 km/h 1.0 mph /  1.6 km/h 56 % 0.00 in /  0 mm
09:23 46.1 °F /  7.8 °C 30.8 °F /  -0.7 °C 30.47 in /  1031.7 hPa NW 2.3 mph /  3.7 km/h 2.3 mph /  3.7 km/h 55 % 0.00 in /  0 mm
09:28 46.8 °F /  8.2 °C 31.5 °F /  -0.3 °C 30.47 in /  1031.7 hPa NNW 2.3 mph /  3.7 km/h 2.3 mph /  3.7 km/h 55 % 0.00 in /  0 mm
09:33 47.1 °F /  8.4 °C 31.3 °F /  -0.4 °C 30.47 in /  1031.7 hPa SSE 2.3 mph /  3.7 km/h 2.3 mph /  3.7 km/h 54 % 0.00 in /  0 mm
09:38 47.8 °F /  8.8 °C 31.9 °F /  -0.1 °C 30.47 in /  1031.7 hPa SW 3.5 mph /  5.6 km/h 3.5 mph /  5.6 km/h 54 % 0.00 in /  0 mm
09:43 47.7 °F /  8.7 °C 30.9 °F /  -0.6 °C 30.46 in /  1031.4 hPa NW 2.3 mph /  3.7 km/h 2.3 mph /  3.7 km/h 52 % 0.00 in /  0 mm
09:48 47.7 °F /  8.7 °C 31.4 °F /  -0.3 °C 30.46 in /  1031.4 hPa NW 2.3 mph /  3.7 km/h 2.3 mph /  3.7 km/h 53 % 0.00 in /  0 mm
09:53 48.0 °F /  8.9 °C 31.2 °F /  -0.4 °C 30.46 in /  1031.4 hPa NW 3.5 mph /  5.6 km/h 3.5 mph /  5.6 km/h 52 % 0.00 in /  0 mm
09:58 48.5 °F /  9.2 °C 31.7 °F /  -0.2 °C 30.46 in /  1031.4 hPa WNW 2.0 mph /  3.2 km/h 2.0 mph /  3.2 km/h 52 % 0.00 in /  0 mm
10:03 49.1 °F /  9.5 °C 32.2 °F /  0.1 °C 30.46 in /  1031.4 hPa SSE 1.2 mph /  1.9 km/h 1.2 mph /  1.9 km/h 52 % 0.00 in /  0 mm
10:08 49.7 °F /  9.8 °C 31.8 °F /  -0.1 °C 30.46 in /  1031.4 hPa WNW 2.3 mph /  3.7 km/h 2.3 mph /  3.7 km/h 50 % 0.00 in /  0 mm
10:13 49.7 °F /  9.8 °C 31.8 °F /  -0.1 °C 30.46 in /  1031.4 hPa South 2.0 mph /  3.2 km/h 2.0 mph /  3.2 km/h 50 % 0.00 in /  0 mm
10:18 50.4 °F /  10.2 °C 32.4 °F /  0.2 °C 30.45 in /  1031 hPa SSE 3.0 mph /  4.8 km/h 3.0 mph /  4.8 km/h 50 % 0.00 in /  0 mm
10:23 50.7 °F /  10.4 °C 32.2 °F /  0.1 °C 30.45 in /  1031 hPa SSE 1.2 mph /  1.9 km/h 1.2 mph /  1.9 km/h 49 % 0.00 in /  0 mm
10:28 50.8 °F /  10.4 °C 31.8 °F /  -0.1 °C 30.45 in /  1031 hPa NNW 2.3 mph /  3.7 km/h 2.3 mph /  3.7 km/h 48 % 0.00 in /  0 mm
10:33 50.4 °F /  10.2 °C 31.4 °F /  -0.3 °C 30.45 in /  1031 hPa West 2.3 mph /  3.7 km/h 2.3 mph /  3.7 km/h 48 % 0.00 in /  0 mm
10:38 50.1 °F /  10.1 °C 30.6 °F /  -0.8 °C 30.45 in /  1031 hPa NW 2.3 mph /  3.7 km/h 2.3 mph /  3.7 km/h 47 % 0.00 in /  0 mm
10:43 50.3 °F /  10.2 °C 31.8 °F /  -0.1 °C 30.44 in /  1030.7 hPa NW 1.2 mph /  1.9 km/h 1.2 mph /  1.9 km/h 49 % 0.00 in /  0 mm
10:48 50.9 °F /  10.5 °C 31.9 °F /  -0.1 °C 30.44 in /  1030.7 hPa WNW 1.2 mph /  1.9 km/h 1.2 mph /  1.9 km/h 48 % 0.00 in /  0 mm
10:53 51.2 °F /  10.7 °C 32.2 °F /  0.1 °C 30.44 in /  1030.7 hPa SSE 2.0 mph /  3.2 km/h 2.0 mph /  3.2 km/h 48 % 0.00 in /  0 mm
10:58 52.1 °F /  11.2 °C 31.9 °F /  -0.1 °C 30.44 in /  1030.7 hPa WSW 1.2 mph /  1.9 km/h 1.2 mph /  1.9 km/h 46 % 0.00 in /  0 mm
11:03 51.6 °F /  10.9 °C 30.4 °F /  -0.9 °C 30.44 in /  1030.7 hPa West 2.3 mph /  3.7 km/h 2.3 mph /  3.7 km/h 44 % 0.00 in /  0 mm
11:08 51.2 °F /  10.7 °C 30.6 °F /  -0.8 °C 30.43 in /  1030.4 hPa West 1.2 mph /  1.9 km/h 1.2 mph /  1.9 km/h 45 % 0.00 in /  0 mm
11:13 51.5 °F /  10.8 °C 31.4 °F /  -0.3 °C 30.43 in /  1030.4 hPa WNW 3.5 mph /  5.6 km/h 3.5 mph /  5.6 km/h 46 % 0.00 in /  0 mm
11:18 52.6 °F /  11.4 °C 33.5 °F /  0.8 °C 30.42 in /  1030 hPa SSW 1.2 mph /  1.9 km/h 1.2 mph /  1.9 km/h 48 % 0.00 in /  0 mm
11:23 53.6 °F /  12 °C 32.8 °F /  0.4 °C 30.42 in /  1030 hPa South 3.5 mph /  5.6 km/h   45 % 0.00 in /  0 mm
11:28 54.1 °F /  12.3 °C 32.6 °F /  0.3 °C 30.42 in /  1030 hPa NNE 2.0 mph /  3.2 km/h 2.0 mph /  3.2 km/h 44 % 0.00 in /  0 mm
11:33 53.9 °F /  12.2 °C 30.7 °F /  -0.7 °C 30.42 in /  1030 hPa NNW 1.2 mph /  1.9 km/h 1.4 mph /  2.3 km/h 41 % 0.00 in /  0 mm
11:38 53.5 °F /  11.9 °C 31.0 °F /  -0.6 °C 30.41 in /  1029.7 hPa WNW 2.3 mph /  3.7 km/h 2.3 mph /  3.7 km/h 42 % 0.00 in /  0 mm
11:43 53.9 °F /  12.2 °C 31.9 °F /  -0.1 °C 30.41 in /  1029.7 hPa NW 2.3 mph /  3.7 km/h 2.3 mph /  3.7 km/h 43 % 0.00 in /  0 mm
11:48 53.8 °F /  12.1 °C 30.6 °F /  -0.8 °C 30.41 in /  1029.7 hPa West 2.3 mph /  3.7 km/h 2.3 mph /  3.7 km/h 41 % 0.00 in /  0 mm
11:53 54.1 °F /  12.3 °C 30.9 °F /  -0.6 °C 30.41 in /  1029.7 hPa WNW 2.3 mph /  3.7 km/h 2.3 mph /  3.7 km/h 41 % 0.00 in /  0 mm
11:58 54.6 °F /  12.6 °C 31.3 °F /  -0.4 °C 30.41 in /  1029.7 hPa NNW 2.3 mph /  3.7 km/h 2.3 mph /  3.7 km/h 41 % 0.00 in /  0 mm
12:03 54.7 °F /  12.6 °C 30.8 °F /  -0.7 °C 30.40 in /  1029.3 hPa NW 2.3 mph /  3.7 km/h 2.3 mph /  3.7 km/h 40 % 0.00 in /  0 mm
12:08 55.2 °F /  12.9 °C 30.0 °F /  -1.1 °C 30.40 in /  1029.3 hPa NNE 1.2 mph /  1.9 km/h 1.2 mph /  1.9 km/h 38 % 0.00 in /  0 mm
12:13 54.9 °F /  12.7 °C 29.1 °F /  -1.6 °C 30.40 in /  1029.3 hPa NW 2.3 mph /  3.7 km/h 2.3 mph /  3.7 km/h 37 % 0.00 in /  0 mm
12:19 54.4 °F /  12.4 °C 28.6 °F /  -1.9 °C 30.39 in /  1029 hPa East 1.2 mph /  1.9 km/h   37 % 0.00 in /  0 mm
12:24 54.4 °F /  12.4 °C 29.9 °F /  -1.2 °C 30.39 in /  1029 hPa SSE 1.2 mph /  1.9 km/h 1.2 mph /  1.9 km/h 39 % 0.00 in /  0 mm
12:29 55.0 °F /  12.8 °C 28.5 °F /  -1.9 °C 30.39 in /  1029 hPa NW 1.2 mph /  1.9 km/h 1.2 mph /  1.9 km/h 36 % 0.00 in /  0 mm
12:34 55.0 °F /  12.8 °C 30.5 °F /  -0.8 °C 30.38 in /  1028.7 hPa Calm     39 % 0.00 in /  0 mm
12:39 55.9 °F /  13.3 °C 31.3 °F /  -0.4 °C 30.38 in /  1028.7 hPa SE 3.5 mph /  5.6 km/h 3.5 mph /  5.6 km/h 39 % 0.00 in /  0 mm
12:44 56.5 °F /  13.6 °C 30.5 °F /  -0.8 °C 30.38 in /  1028.7 hPa East 3.5 mph /  5.6 km/h 3.5 mph /  5.6 km/h 37 % 0.00 in /  0 mm
12:49 56.7 °F /  13.7 °C 31.4 °F /  -0.3 °C 30.38 in /  1028.7 hPa SE 1.2 mph /  1.9 km/h 1.2 mph /  1.9 km/h 38 % 0.00 in /  0 mm
12:54 56.4 °F /  13.6 °C 29.1 °F /  -1.6 °C 30.38 in /  1028.7 hPa NW 2.3 mph /  3.7 km/h 2.3 mph /  3.7 km/h 35 % 0.00 in /  0 mm
12:59 56.2 °F /  13.4 °C 29.6 °F /  -1.3 °C 30.37 in /  1028.3 hPa NW 3.5 mph /  5.6 km/h 3.5 mph /  5.6 km/h 36 % 0.00 in /  0 mm
13:04 56.6 °F /  13.7 °C 31.9 °F /  -0.1 °C 30.37 in /  1028.3 hPa SSE 2.3 mph /  3.7 km/h   39 % 0.00 in /  0 mm
13:07 57.2 °F /  14 °C 31.1 °F /  -0.5 °C 30.37 in /  1028.3 hPa ENE 1.2 mph /  1.9 km/h 1.2 mph /  1.9 km/h 37 % 0.00 in /  0 mm
13:12 57.2 °F /  14 °C 29.8 °F /  -1.2 °C 30.37 in /  1028.3 hPa WNW 3.5 mph /  5.6 km/h 3.5 mph /  5.6 km/h 35 % 0.00 in /  0 mm
13:17 56.7 °F /  13.7 °C 30.0 °F /  -1.1 °C 30.36 in /  1028 hPa WNW 3.5 mph /  5.6 km/h 3.5 mph /  5.6 km/h 36 % 0.00 in /  0 mm
13:23 57.1 °F /  13.9 °C 29.7 °F /  -1.3 °C 30.36 in /  1028 hPa NW 1.0 mph /  1.6 km/h   35 % 0.00 in /  0 mm
13:28 56.9 °F /  13.8 °C 29.5 °F /  -1.4 °C 30.36 in /  1028 hPa NW 3.0 mph /  4.8 km/h 3.0 mph /  4.8 km/h 35 % 0.00 in /  0 mm
13:30 56.8 °F /  13.8 °C 28.7 °F /  -1.8 °C 30.36 in /  1028 hPa North 3.5 mph /  5.6 km/h 3.5 mph /  5.6 km/h 34 % 0.00 in /  0 mm
13:35 56.7 °F /  13.7 °C 28.6 °F /  -1.9 °C 30.36 in /  1028 hPa ESE 1.2 mph /  1.9 km/h 1.4 mph /  2.3 km/h 34 % 0.00 in /  0 mm
13:40 56.9 °F /  13.8 °C 30.9 °F /  -0.6 °C 30.35 in /  1027.7 hPa NNE 4.0 mph /  6.4 km/h 4.0 mph /  6.4 km/h 37 % 0.00 in /  0 mm
13:45 57.2 °F /  14 °C 29.1 °F /  -1.6 °C 30.35 in /  1027.7 hPa West 3.5 mph /  5.6 km/h 3.5 mph /  5.6 km/h 34 % 0.00 in /  0 mm
13:46 57.2 °F /  14 °C 29.1 °F /  -1.6 °C 30.35 in /  1027.7 hPa WNW 3.5 mph /  5.6 km/h 3.5 mph /  5.6 km/h 34 % 0.00 in /  0 mm
13:51 57.1 °F /  13.9 °C 28.2 °F /  -2.1 °C 30.35 in /  1027.7 hPa NW 3.5 mph /  5.6 km/h 3.5 mph /  5.6 km/h 33 % 0.00 in /  0 mm
13:57 57.0 °F /  13.9 °C 28.9 °F /  -1.7 °C 30.35 in /  1027.7 hPa NW 3.5 mph /  5.6 km/h 3.5 mph /  5.6 km/h 34 % 0.00 in /  0 mm
14:02 57.1 °F /  13.9 °C 28.2 °F /  -2.1 °C 30.34 in /  1027.3 hPa NW 4.0 mph /  6.4 km/h 4.0 mph /  6.4 km/h 33 % 0.00 in /  0 mm
14:05 57.0 °F /  13.9 °C 28.1 °F /  -2.2 °C 30.34 in /  1027.3 hPa NNW 3.5 mph /  5.6 km/h 3.5 mph /  5.6 km/h 33 % 0.00 in /  0 mm
14:10 57.5 °F /  14.2 °C 29.3 °F /  -1.5 °C 30.34 in /  1027.3 hPa NW 3.5 mph /  5.6 km/h 3.5 mph /  5.6 km/h 34 % 0.00 in /  0 mm
14:15 57.7 °F /  14.3 °C 28.8 °F /  -1.8 °C 30.34 in /  1027.3 hPa NW 3.5 mph /  5.6 km/h 3.5 mph /  5.6 km/h 33 % 0.00 in /  0 mm
14:20 57.6 °F /  14.2 °C 27.9 °F /  -2.3 °C 30.33 in /  1027 hPa NW 2.3 mph /  3.7 km/h 2.3 mph /  3.7 km/h 32 % 0.00 in /  0 mm
14:25 57.6 °F /  14.2 °C 27.9 °F /  -2.3 °C 30.33 in /  1027 hPa NW 5.8 mph /  9.3 km/h 5.8 mph /  9.3 km/h 32 % 0.00 in /  0 mm
14:26 57.6 °F /  14.2 °C 27.2 °F /  -2.7 °C 30.33 in /  1027 hPa West 5.8 mph /  9.3 km/h 5.8 mph /  9.3 km/h 31 % 0.00 in /  0 mm
14:31 57.9 °F /  14.4 °C 27.4 °F /  -2.6 °C 30.33 in /  1027 hPa NW 4.6 mph /  7.4 km/h 4.6 mph /  7.4 km/h 31 % 0.00 in /  0 mm
14:36 58.0 °F /  14.4 °C 28.3 °F /  -2.1 °C 30.32 in /  1026.6 hPa WSW 3.5 mph /  5.6 km/h 3.5 mph /  5.6 km/h 32 % 0.00 in /  0 mm
14:41 58.1 °F /  14.5 °C 29.1 °F /  -1.6 °C 30.32 in /  1026.6 hPa NW 3.5 mph /  5.6 km/h 3.5 mph /  5.6 km/h 33 % 0.00 in /  0 mm
14:47 57.8 °F /  14.3 °C 27.3 °F /  -2.6 °C 30.32 in /  1026.6 hPa West 2.3 mph /  3.7 km/h 2.3 mph /  3.7 km/h 31 % 0.00 in /  0 mm
14:52 57.7 °F /  14.3 °C 28.0 °F /  -2.2 °C 30.32 in /  1026.6 hPa WNW 2.3 mph /  3.7 km/h 2.3 mph /  3.7 km/h 32 % 0.00 in /  0 mm
14:57 57.8 °F /  14.3 °C 27.3 °F /  -2.6 °C 30.31 in /  1026.3 hPa NW 4.6 mph /  7.4 km/h 4.6 mph /  7.4 km/h 31 % 0.00 in /  0 mm
14:58 57.8 °F /  14.3 °C 26.5 °F /  -3.1 °C 30.31 in /  1026.3 hPa WNW 4.6 mph /  7.4 km/h 4.6 mph /  7.4 km/h 30 % 0.00 in /  0 mm
15:03 58.0 °F /  14.4 °C 26.7 °F /  -2.9 °C 30.31 in /  1026.3 hPa WNW 4.0 mph /  6.4 km/h 4.0 mph /  6.4 km/h 30 % 0.00 in /  0 mm
15:08 58.0 °F /  14.4 °C 26.7 °F /  -2.9 °C 30.31 in /  1026.3 hPa North 3.5 mph /  5.6 km/h 3.5 mph /  5.6 km/h 30 % 0.00 in /  0 mm
15:13 57.8 °F /  14.3 °C 26.5 °F /  -3.1 °C 30.30 in /  1026 hPa WNW 1.2 mph /  1.9 km/h 1.2 mph /  1.9 km/h 30 % 0.00 in /  0 mm
15:18 57.7 °F /  14.3 °C 27.2 °F /  -2.7 °C 30.30 in /  1026 hPa NW 8.1 mph /  13 km/h 8.1 mph /  13 km/h 31 % 0.00 in /  0 mm
15:23 57.8 °F /  14.3 °C 27.3 °F /  -2.6 °C 30.31 in /  1026.3 hPa NW 3.5 mph /  5.6 km/h 3.5 mph /  5.6 km/h 31 % 0.00 in /  0 mm
15:28 58.0 °F /  14.4 °C 28.3 °F /  -2.1 °C 30.30 in /  1026 hPa NW 3.5 mph /  5.6 km/h 3.5 mph /  5.6 km/h 32 % 0.00 in /  0 mm
15:33 57.8 °F /  14.3 °C 26.5 °F /  -3.1 °C 30.30 in /  1026 hPa NW 4.6 mph /  7.4 km/h 4.6 mph /  7.4 km/h 30 % 0.00 in /  0 mm
15:38 57.6 °F /  14.2 °C 26.4 °F /  -3.1 °C 30.30 in /  1026 hPa NNW 3.5 mph /  5.6 km/h 3.5 mph /  5.6 km/h 30 % 0.00 in /  0 mm
15:43 57.8 °F /  14.3 °C 27.3 °F /  -2.6 °C 30.30 in /  1026 hPa NE 3.5 mph /  5.6 km/h 3.5 mph /  5.6 km/h 31 % 0.00 in /  0 mm
15:48 57.5 °F /  14.2 °C 26.3 °F /  -3.2 °C 30.30 in /  1026 hPa NW 4.6 mph /  7.4 km/h 4.6 mph /  7.4 km/h 30 % 0.00 in /  0 mm
15:51 57.3 °F /  14.1 °C 26.1 °F /  -3.3 °C 30.30 in /  1026 hPa WNW 3.5 mph /  5.6 km/h 3.5 mph /  5.6 km/h 30 % 0.00 in /  0 mm
15:56 57.1 °F /  13.9 °C 27.5 °F /  -2.5 °C 30.29 in /  1025.6 hPa NW 2.0 mph /  3.2 km/h 2.0 mph /  3.2 km/h 32 % 0.00 in /  0 mm
16:01 57.2 °F /  14 °C 27.6 °F /  -2.4 °C 30.29 in /  1025.6 hPa NW 3.5 mph /  5.6 km/h 3.5 mph /  5.6 km/h 32 % 0.00 in /  0 mm
16:06 57.3 °F /  14.1 °C 26.9 °F /  -2.8 °C 30.29 in /  1025.6 hPa NW 5.8 mph /  9.3 km/h 5.8 mph /  9.3 km/h 31 % 0.00 in /  0 mm
16:11 57.2 °F /  14 °C 26.8 °F /  -2.9 °C 30.29 in /  1025.6 hPa West 3.5 mph /  5.6 km/h 3.5 mph /  5.6 km/h 31 % 0.00 in /  0 mm
16:16 57.1 °F /  13.9 °C 28.2 °F /  -2.1 °C 30.29 in /  1025.6 hPa WNW 3.5 mph /  5.6 km/h 3.5 mph /  5.6 km/h 33 % 0.00 in /  0 mm
16:21 57.1 °F /  13.9 °C 27.5 °F /  -2.5 °C 30.29 in /  1025.6 hPa NW 5.0 mph /  8 km/h 5.0 mph /  8 km/h 32 % 0.00 in /  0 mm
16:26 56.9 °F /  13.8 °C 27.3 °F /  -2.6 °C 30.28 in /  1025.3 hPa NW 3.5 mph /  5.6 km/h 3.5 mph /  5.6 km/h 32 % 0.00 in /  0 mm
16:31 56.9 °F /  13.8 °C 28.1 °F /  -2.2 °C 30.28 in /  1025.3 hPa NNW 7.0 mph /  11.3 km/h 7.0 mph /  11.3 km/h 33 % 0.00 in /  0 mm
16:36 56.8 °F /  13.8 °C 26.5 °F /  -3.1 °C 30.28 in /  1025.3 hPa NW 4.6 mph /  7.4 km/h 4.6 mph /  7.4 km/h 31 % 0.00 in /  0 mm
16:41 56.7 °F /  13.7 °C 27.1 °F /  -2.7 °C 30.28 in /  1025.3 hPa NW 2.3 mph /  3.7 km/h 2.3 mph /  3.7 km/h 32 % 0.00 in /  0 mm
16:46 56.6 °F /  13.7 °C 27.0 °F /  -2.8 °C 30.28 in /  1025.3 hPa NW 4.6 mph /  7.4 km/h 4.6 mph /  7.4 km/h 32 % 0.00 in /  0 mm
16:51 56.5 °F /  13.6 °C 27.7 °F /  -2.4 °C 30.28 in /  1025.3 hPa NW 3.5 mph /  5.6 km/h 3.5 mph /  5.6 km/h 33 % 0.00 in /  0 mm
16:56 56.5 °F /  13.6 °C 26.2 °F /  -3.2 °C 30.27 in /  1024.9 hPa NW 4.0 mph /  6.4 km/h 4.0 mph /  6.4 km/h 31 % 0.00 in /  0 mm
17:01 56.2 °F /  13.4 °C 25.9 °F /  -3.4 °C 30.27 in /  1024.9 hPa NW 3.5 mph /  5.6 km/h 3.5 mph /  5.6 km/h 31 % 0.00 in /  0 mm
17:06 56.1 °F /  13.4 °C 25.8 °F /  -3.4 °C 30.27 in /  1024.9 hPa West 3.5 mph /  5.6 km/h 3.5 mph /  5.6 km/h 31 % 0.00 in /  0 mm
17:11 55.9 °F /  13.3 °C 27.2 °F /  -2.7 °C 30.27 in /  1024.9 hPa NW 2.3 mph /  3.7 km/h 2.3 mph /  3.7 km/h 33 % 0.00 in /  0 mm
17:16 55.7 °F /  13.2 °C 26.3 °F /  -3.2 °C 30.27 in /  1024.9 hPa NNW 5.8 mph /  9.3 km/h 5.8 mph /  9.3 km/h 32 % 0.00 in /  0 mm
17:21 55.5 °F /  13.1 °C 26.1 °F /  -3.3 °C 30.27 in /  1024.9 hPa WNW 5.0 mph /  8 km/h 5.0 mph /  8 km/h 32 % 0.00 in /  0 mm
17:26 55.2 °F /  12.9 °C 26.6 °F /  -3 °C 30.27 in /  1024.9 hPa WNW 2.3 mph /  3.7 km/h 2.3 mph /  3.7 km/h 33 % 0.00 in /  0 mm
17:31 54.7 °F /  12.6 °C 27.6 °F /  -2.4 °C 30.27 in /  1024.9 hPa WNW 2.0 mph /  3.2 km/h 2.0 mph /  3.2 km/h 35 % 0.00 in /  0 mm
17:36 54.6 °F /  12.6 °C 26.0 °F /  -3.3 °C 30.27 in /  1024.9 hPa WNW 2.3 mph /  3.7 km/h 2.3 mph /  3.7 km/h 33 % 0.00 in /  0 mm
17:41 54.3 °F /  12.4 °C 26.5 °F /  -3.1 °C 30.26 in /  1024.6 hPa NW 1.2 mph /  1.9 km/h 1.2 mph /  1.9 km/h 34 % 0.00 in /  0 mm
17:46 53.8 °F /  12.1 °C 26.8 °F /  -2.9 °C 30.26 in /  1024.6 hPa NW 3.5 mph /  5.6 km/h 3.5 mph /  5.6 km/h 35 % 0.00 in /  0 mm
17:51 53.4 °F /  11.9 °C 27.1 °F /  -2.7 °C 30.26 in /  1024.6 hPa WNW 1.2 mph /  1.9 km/h 1.2 mph /  1.9 km/h 36 % 0.00 in /  0 mm
17:56 53.0 °F /  11.7 °C 28.0 °F /  -2.2 °C 30.26 in /  1024.6 hPa West 1.0 mph /  1.6 km/h 1.0 mph /  1.6 km/h 38 % 0.00 in /  0 mm
18:01 52.3 °F /  11.3 °C 28.1 °F /  -2.2 °C 30.26 in /  1024.6 hPa Calm     39 % 0.00 in /  0 mm
18:06 52.0 °F /  11.1 °C 27.1 °F /  -2.7 °C 30.26 in /  1024.6 hPa WNW 1.2 mph /  1.9 km/h   38 % 0.00 in /  0 mm
18:11 52.1 °F /  11.2 °C 27.2 °F /  -2.7 °C 30.26 in /  1024.6 hPa Calm     38 % 0.00 in /  0 mm
18:16 52.1 °F /  11.2 °C 27.2 °F /  -2.7 °C 30.26 in /  1024.6 hPa Calm     38 % 0.00 in /  0 mm
18:21 51.8 °F /  11 °C 27.6 °F /  -2.4 °C 30.26 in /  1024.6 hPa Calm     39 % 0.00 in /  0 mm
18:26 51.3 °F /  10.7 °C 27.8 °F /  -2.3 °C 30.26 in /  1024.6 hPa Calm     40 % 0.00 in /  0 mm
18:31 51.0 °F /  10.6 °C 27.5 °F /  -2.5 °C 30.26 in /  1024.6 hPa Calm     40 % 0.00 in /  0 mm
18:36 51.0 °F /  10.6 °C 28.1 °F /  -2.2 °C 30.26 in /  1024.6 hPa Calm     41 % 0.00 in /  0 mm
18:41 51.0 °F /  10.6 °C 28.1 °F /  -2.2 °C 30.26 in /  1024.6 hPa Calm     41 % 0.00 in /  0 mm
18:46 50.6 °F /  10.3 °C 28.3 °F /  -2.1 °C 30.26 in /  1024.6 hPa Calm     42 % 0.00 in /  0 mm
18:51 50.5 °F /  10.3 °C 28.2 °F /  -2.1 °C 30.26 in /  1024.6 hPa Calm     42 % 0.00 in /  0 mm
18:56 50.4 °F /  10.2 °C 28.1 °F /  -2.2 °C 30.26 in /  1024.6 hPa Calm     42 % 0.00 in /  0 mm
18:57 50.4 °F /  10.2 °C 28.1 °F /  -2.2 °C 30.26 in /  1024.6 hPa Calm     42 % 0.00 in /  0 mm
19:02 50.0 °F /  10 °C 28.4 °F /  -2 °C 30.26 in /  1024.6 hPa Calm     43 % 0.00 in /  0 mm
19:07 50.0 °F /  10 °C 28.4 °F /  -2 °C 30.26 in /  1024.6 hPa Calm     43 % 0.00 in /  0 mm
19:12 50.1 °F /  10.1 °C 27.9 °F /  -2.3 °C 30.27 in /  1024.9 hPa NNW 1.2 mph /  1.9 km/h 1.2 mph /  1.9 km/h 42 % 0.00 in /  0 mm
19:17 50.3 °F /  10.2 °C 28.1 °F /  -2.2 °C 30.27 in /  1024.9 hPa NW 1.2 mph /  1.9 km/h   42 % 0.00 in /  0 mm
19:22 50.2 °F /  10.1 °C 28.0 °F /  -2.2 °C 30.27 in /  1024.9 hPa Calm     42 % 0.00 in /  0 mm
19:27 50.1 °F /  10.1 °C 28.4 °F /  -2 °C 30.26 in /  1024.6 hPa Calm     43 % 0.00 in /  0 mm
19:32 49.8 °F /  9.9 °C 28.2 °F /  -2.1 °C 30.27 in /  1024.9 hPa Calm   0.2 mph /  0.3 km/h 43 % 0.00 in /  0 mm
19:37 49.6 °F /  9.8 °C 28.0 °F /  -2.2 °C 30.27 in /  1024.9 hPa NNW 1.2 mph /  1.9 km/h 1.2 mph /  1.9 km/h 43 % 0.00 in /  0 mm
19:42 49.5 °F /  9.7 °C 27.9 °F /  -2.3 °C 30.27 in /  1024.9 hPa NW 1.2 mph /  1.9 km/h 1.2 mph /  1.9 km/h 43 % 0.00 in /  0 mm
19:48 49.5 °F /  9.7 °C 27.9 °F /  -2.3 °C 30.27 in /  1024.9 hPa NW 1.2 mph /  1.9 km/h 1.2 mph /  1.9 km/h 43 % 0.00 in /  0 mm
19:53 49.6 °F /  9.8 °C 27.4 °F /  -2.6 °C 30.27 in /  1024.9 hPa NW 1.2 mph /  1.9 km/h   42 % 0.00 in /  0 mm
19:57 49.6 °F /  9.8 °C 27.4 °F /  -2.6 °C 30.27 in /  1024.9 hPa NW 2.3 mph /  3.7 km/h 2.3 mph /  3.7 km/h 42 % 0.00 in /  0 mm
20:03 49.6 °F /  9.8 °C 27.4 °F /  -2.6 °C 30.27 in /  1024.9 hPa NNW 1.2 mph /  1.9 km/h 1.2 mph /  1.9 km/h 42 % 0.00 in /  0 mm
20:08 49.6 °F /  9.8 °C 27.4 °F /  -2.6 °C 30.26 in /  1024.6 hPa NW 2.3 mph /  3.7 km/h 2.3 mph /  3.7 km/h 42 % 0.00 in /  0 mm
20:13 49.5 °F /  9.7 °C 26.7 °F /  -2.9 °C 30.26 in /  1024.6 hPa Calm     41 % 0.00 in /  0 mm
20:18 49.5 °F /  9.7 °C 26.7 °F /  -2.9 °C 30.26 in /  1024.6 hPa NW 1.2 mph /  1.9 km/h 1.2 mph /  1.9 km/h 41 % 0.00 in /  0 mm
20:23 49.3 °F /  9.6 °C 27.2 °F /  -2.7 °C 30.26 in /  1024.6 hPa Calm     42 % 0.00 in /  0 mm
20:28 49.1 °F /  9.5 °C 27.0 °F /  -2.8 °C 30.26 in /  1024.6 hPa Calm     42 % 0.00 in /  0 mm
20:33 48.9 °F /  9.4 °C 27.4 °F /  -2.6 °C 30.27 in /  1024.9 hPa Calm     43 % 0.00 in /  0 mm
20:38 48.9 °F /  9.4 °C 27.4 °F /  -2.6 °C 30.27 in /  1024.9 hPa Calm     43 % 0.00 in /  0 mm
20:43 48.6 °F /  9.2 °C 29.3 °F /  -1.5 °C 30.27 in /  1024.9 hPa Calm     47 % 0.00 in /  0 mm
20:48 47.7 °F /  8.7 °C 30.0 °F /  -1.1 °C 30.27 in /  1024.9 hPa Calm     50 % 0.00 in /  0 mm
20:53 47.0 °F /  8.3 °C 29.3 °F /  -1.5 °C 30.27 in /  1024.9 hPa Calm     50 % 0.00 in /  0 mm
20:58 46.3 °F /  7.9 °C 30.5 °F /  -0.8 °C 30.27 in /  1024.9 hPa Calm     54 % 0.00 in /  0 mm
21:03 45.9 °F /  7.7 °C 28.8 °F /  -1.8 °C 30.27 in /  1024.9 hPa Calm     51 % 0.00 in /  0 mm
21:08 45.6 °F /  7.6 °C 29.4 °F /  -1.4 °C 30.27 in /  1024.9 hPa Calm     53 % 0.00 in /  0 mm
21:13 45.1 °F /  7.3 °C 30.8 °F /  -0.7 °C 30.27 in /  1024.9 hPa Calm     57 % 0.00 in /  0 mm
21:18 44.6 °F /  7 °C 30.7 °F /  -0.7 °C 30.27 in /  1024.9 hPa Calm     58 % 0.00 in /  0 mm
21:23 44.1 °F /  6.7 °C 31.5 °F /  -0.3 °C 30.27 in /  1024.9 hPa Calm     61 % 0.00 in /  0 mm
21:28 43.6 °F /  6.4 °C 31.4 °F /  -0.3 °C 30.27 in /  1024.9 hPa Calm     62 % 0.00 in /  0 mm
21:33 43.0 °F /  6.1 °C 31.3 °F /  -0.4 °C 30.27 in /  1024.9 hPa Calm     63 % 0.00 in /  0 mm
21:38 42.4 °F /  5.8 °C 31.1 °F /  -0.5 °C 30.27 in /  1024.9 hPa Calm     64 % 0.00 in /  0 mm
21:43 42.0 °F /  5.6 °C 32.2 °F /  0.1 °C 30.27 in /  1024.9 hPa Calm     68 % 0.00 in /  0 mm
21:48 41.4 °F /  5.2 °C 32.3 °F /  0.2 °C 30.27 in /  1024.9 hPa Calm     70 % 0.00 in /  0 mm
21:53 40.8 °F /  4.9 °C 31.8 °F /  -0.1 °C 30.27 in /  1024.9 hPa Calm     70 % 0.00 in /  0 mm
21:58 40.2 °F /  4.6 °C 31.9 °F /  -0.1 °C 30.28 in /  1025.3 hPa Calm     72 % 0.00 in /  0 mm
22:03 39.8 °F /  4.3 °C 31.5 °F /  -0.3 °C 30.27 in /  1024.9 hPa Calm     72 % 0.00 in /  0 mm
22:08 39.6 °F /  4.2 °C 31.7 °F /  -0.2 °C 30.28 in /  1025.3 hPa Calm     73 % 0.00 in /  0 mm
22:13 39.7 °F /  4.3 °C 31.4 °F /  -0.3 °C 30.28 in /  1025.3 hPa Calm     72 % 0.00 in /  0 mm
22:18 39.6 °F /  4.2 °C 31.3 °F /  -0.4 °C 30.28 in /  1025.3 hPa Calm     72 % 0.00 in /  0 mm
22:23 39.5 °F /  4.2 °C 31.6 °F /  -0.2 °C 30.28 in /  1025.3 hPa Calm     73 % 0.00 in /  0 mm
22:28 39.2 °F /  4 °C 31.9 °F /  -0.1 °C 30.28 in /  1025.3 hPa Calm     75 % 0.00 in /  0 mm
22:33 38.7 °F /  3.7 °C 31.8 °F /  -0.1 °C 30.28 in /  1025.3 hPa Calm     76 % 0.00 in /  0 mm
22:38 38.4 °F /  3.6 °C 31.2 °F /  -0.4 °C 30.28 in /  1025.3 hPa Calm     75 % 0.00 in /  0 mm
22:43 38.4 °F /  3.6 °C 30.8 °F /  -0.7 °C 30.28 in /  1025.3 hPa NNE 1.2 mph /  1.9 km/h   74 % 0.00 in /  0 mm
22:48 38.5 °F /  3.6 °C 30.6 °F /  -0.8 °C 30.28 in /  1025.3 hPa NNE 1.2 mph /  1.9 km/h 1.2 mph /  1.9 km/h 73 % 0.00 in /  0 mm
22:53 38.4 °F /  3.6 °C 30.2 °F /  -1 °C 30.29 in /  1025.6 hPa Calm     72 % 0.00 in /  0 mm
22:58 38.2 °F /  3.4 °C 30.0 °F /  -1.1 °C 30.29 in /  1025.6 hPa Calm     72 % 0.00 in /  0 mm
23:03 38.2 °F /  3.4 °C 29.6 °F /  -1.3 °C 30.29 in /  1025.6 hPa Calm     71 % 0.00 in /  0 mm
23:08 38.1 °F /  3.4 °C 30.5 °F /  -0.8 °C 30.29 in /  1025.6 hPa Calm     74 % 0.00 in /  0 mm
23:13 37.7 °F /  3.2 °C 30.5 °F /  -0.8 °C 30.29 in /  1025.6 hPa Calm     75 % 0.00 in /  0 mm
23:18 37.5 °F /  3.1 °C 30.3 °F /  -0.9 °C 30.29 in /  1025.6 hPa Calm     75 % 0.00 in /  0 mm
23:23 37.3 °F /  2.9 °C 30.1 °F /  -1.1 °C 30.29 in /  1025.6 hPa NNE 1.2 mph /  1.9 km/h 1.2 mph /  1.9 km/h 75 % 0.00 in /  0 mm
23:28 37.2 °F /  2.9 °C 29.7 °F /  -1.3 °C 30.29 in /  1025.6 hPa NNE 1.2 mph /  1.9 km/h 1.2 mph /  1.9 km/h 74 % 0.00 in /  0 mm
23:33 37.1 °F /  2.8 °C 29.6 °F /  -1.3 °C 30.30 in /  1026 hPa NNE 1.2 mph /  1.9 km/h 1.2 mph /  1.9 km/h 74 % 0.00 in /  0 mm
23:38 37.1 °F /  2.8 °C 29.6 °F /  -1.3 °C 30.30 in /  1026 hPa ESE 3.0 mph /  4.8 km/h 3.0 mph /  4.8 km/h 74 % 0.00 in /  0 mm
23:43 36.9 °F /  2.7 °C 29.4 °F /  -1.4 °C 30.30 in /  1026 hPa Calm     74 % 0.00 in /  0 mm
23:48 36.8 °F /  2.7 °C 29.3 °F /  -1.5 °C 30.30 in /  1026 hPa Calm     74 % 0.00 in /  0 mm
23:53 37.0 °F /  2.8 °C 29.5 °F /  -1.4 °C 30.31 in /  1026.3 hPa ESE 1.2 mph /  1.9 km/h 1.2 mph /  1.9 km/h 74 % 0.00 in /  0 mm
23:58 37.3 °F /  2.9 °C 29.1 °F /  -1.6 °C 30.31 in /  1026.3 hPa ESE 1.2 mph /  1.9 km/h   72 % 0.00 in /  0 mm
Park Place, Exeter, Tulare County, California, USA
Compliments of Weather Underground - 2.75 mb